Irvington, AL

3:48 AM CST on December 27, 2014 (GMT -0600)
Mobile Downtown | Change Station
CLOSE
Current Station
Airport
Location: Mobile Downtown,
Elevation: 23 ft
Nearby Weather Stations

Elev 23 ft 30.63 °N, 88.07 °W | Updated 55 minutes ago

Overcast
Overcast
57 °F
Feels Like 57 °F
N
7
Wind Variable Wind from East

Today
High -- | Low -- °F
--% Chance of Precip.
Yesterday
High -- | Low -- °F
Precip. -- in
6:48 AM 4:59 PM
Waxing Crescent, 35% visible
Pressure 30.19 in
Visibility 10.0 miles
Clouds Mostly Cloudy 6500 ft
Overcast 8500 ft
Dew Point 50 °F
Humidity 77%
Rainfall 0.00 in
Snow Depth Not available.
UV 0 out of 12
Pollen 3.30 out of 12
Air Quality Not available.
Flu Activity Not available.
METAR KBFM 270853Z AUTO 08006KT 10SM BKN065 OVC085 14/10 A3019 RMK AO2 SLP222 T01390100 58005

More Conditions Fewer Conditions

Pressure 30.19 in
Visibility 10.0 miles
Clouds Mostly Cloudy 6500 ft
Overcast 8500 ft
Dew Point 50 °F
Humidity 77%
Rainfall 0.00 in
Snow Depth Not available.
UV 0 out of 12
Pollen 3.30 out of 12
Air Quality Not available.
Flu Activity Not available.
METAR KBFM 270853Z AUTO 08006KT 10SM BKN065 OVC085 14/10 A3019 RMK AO2 SLP222 T01390100 58005

More Conditions Fewer Conditions

10-Day Weather Forecast

Almanac

Astronomy

Dec. 27, 2014 Rise Set
Actual Time
Civil Twilight
Nautical Twilight
Astronomical Twilight
Moon
Length of Visible Light
Length of Day
Tomorrow will be .
, % of the Moon is Illuminated

Today's Extremes

State Highs State Lows

Community

WunderPhotos

Upload Photos

1,780,869 photos uploaded!

WunderBlogs® & News

Nearby

Air Quality

  Air Quality AQ Index Pollutant
Not available.

Snow Depth

Station Depth Elevation

Earthquake Activity

City Distance Mag. Time & Date
Minimum magnitude displayed is 2.5.

Coastal Water Temperatures

Place Temperature

Nearby Weather Stations